Time;durP1;ratioP1;P1;durP2;ratioP2;P2;SDS_P1;SDS_P2;PMS_P1;PMS_P2;Temp;Humidity;BMP_temperature;BMP_pressure;BME280_temperature;BME280_humidity;BME280_pressure;Samples;Min_cycle;Max_cycle;Signal;HPM_P1;HPM_P2
2021/03/19 00:01:32;;;;;;;;;;;4.50;88.90;;;;;;6223274;22;19908;-88
2021/03/19 00:03:58;;;;;;;;;;;4.50;88.90;;;;;;6248390;22;20004;-87
2021/03/19 00:06:32;;;;;;;;;;;4.40;88.80;;;;;;6248247;22;19947;-88
2021/03/19 00:09:12;;;;;;;;;;;4.40;89.00;;;;;;6249409;22;19910;-87
2021/03/19 00:11:57;;;;;;;;;;;4.30;89.00;;;;;;6249158;22;19919;-88
2021/03/19 00:14:28;;;;;;;;;;;4.30;89.20;;;;;;6224936;22;19911;-86
2021/03/19 00:17:06;;;;;;;;;;;;;;;;;;;;;
2021/03/19 00:19:34;;;;;;;;;;;4.20;89.40;;;;;;6274612;22;19985;-87
2021/03/19 00:22:14;;;;;;;;;;;4.20;89.40;;;;;;6250218;22;19907;-87
2021/03/19 00:24:50;;;;;;;;;;;4.20;89.40;;;;;;6251320;22;19938;-87
2021/03/19 00:33:48;;;;;;;;;;;4.10;89.30;;;;;;6256372;22;19904;-86
2021/03/19 00:36:32;;;;;;;;;;;4.00;89.20;;;;;;6245038;23;19922;-85
2021/03/19 00:39:01;;;;;;;;;;;4.00;89.20;;;;;;6246164;22;20337;-86
2021/03/19 00:41:35;;;;;;;;;;;3.90;89.20;;;;;;6219690;23;20260;-87
2021/03/19 00:44:01;;;;;;;;;;;3.90;89.30;;;;;;6246032;23;19912;-87
2021/03/19 00:46:44;;;;;;;;;;;3.90;89.30;;;;;;6244477;22;19938;-86
2021/03/19 00:49:26;;;;;;;;;;;3.90;89.30;;;;;;6243275;22;20314;-87
2021/03/19 00:52:09;;;;;;;;;;;3.90;89.30;;;;;;6246241;23;19990;-88
2021/03/19 00:54:38;;;;;;;;;;;3.80;89.30;;;;;;6244728;23;19911;-88
2021/03/19 00:57:11;;;;;;;;;;;3.80;89.30;;;;;;6245337;23;19904;-87
2021/03/19 00:59:39;;;;;;;;;;;3.80;89.50;;;;;;6220979;23;19981;-88
2021/03/19 01:02:09;;;;;;;;;;;3.70;89.50;;;;;;6219709;23;19962;-88
2021/03/19 01:04:52;;;;;;;;;;;3.70;89.50;;;;;;6244209;23;20172;-87
2021/03/19 01:07:29;;;;;;;;;;;3.70;89.60;;;;;;6245691;22;20382;-87
2021/03/19 01:09:57;;;;;;;;;;;3.70;89.60;;;;;;6220273;23;19938;-87
2021/03/19 01:12:42;;;;;;;;;;;;;;;;;;;;;
2021/03/19 01:15:19;;;;;;;;;;;3.70;89.70;;;;;;6243550;23;19982;-88
2021/03/19 01:17:52;;;;;;;;;;;3.60;89.80;;;;;;6218540;23;19970;-87
2021/03/19 01:20:31;;;;;;;;;;;3.60;90.00;;;;;;6242395;23;19903;-88
2021/03/19 01:23:06;;;;;;;;;;;;;;;;;;;;;
2021/03/19 01:25:35;;;;;;;;;;;3.50;90.00;;;;;;6245528;23;19978;-87
2021/03/19 01:28:08;;;;;;;;;;;3.50;90.10;;;;;;6244017;23;19998;-85
2021/03/19 01:30:53;;;;;;;;;;;3.40;90.10;;;;;;6244265;23;20217;-85
2021/03/19 01:33:28;;;;;;;;;;;;;;;;;;;;;
2021/03/19 01:36:06;;;;;;;;;;;3.40;90.30;;;;;;6248780;22;19990;-87
2021/03/19 01:38:42;;;;;;;;;;;3.40;90.30;;;;;;6249836;22;19911;-86
2021/03/19 01:41:18;;;;;;;;;;;3.40;90.30;;;;;;6249582;22;19907;-87
2021/03/19 01:43:43;;;;;;;;;;;3.40;90.30;;;;;;6249927;22;19903;-87
2021/03/19 01:46:38;;;;;;;;;;;3.30;90.30;;;;;;6273823;22;20431;-87
2021/03/19 01:49:30;;;;;;;;;;;3.30;90.40;;;;;;6244874;22;19938;-87
2021/03/19 01:52:32;;;;;;;;;;;3.30;90.40;;;;;;6248936;22;19903;-87
2021/03/19 01:55:17;;;;;;;;;;;3.20;90.50;;;;;;6248794;22;19903;-87
2021/03/19 01:58:01;;;;;;;;;;;3.20;90.50;;;;;;6249295;22;19903;-87
2021/03/19 02:00:45;;;;;;;;;;;3.20;90.50;;;;;;6248819;22;20214;-88
2021/03/19 02:03:40;;;;;;;;;;;;;;;;;;;;;
2021/03/19 02:06:30;;;;;;;;;;;3.20;90.60;;;;;;6273621;22;19994;-86
2021/03/19 02:09:17;;;;;;;;;;;3.20;90.60;;;;;;6248333;22;19907;-87
2021/03/19 02:12:05;;;;;;;;;;;3.20;90.60;;;;;;6248152;22;19946;-87
2021/03/19 02:14:49;;;;;;;;;;;3.20;90.60;;;;;;6247342;22;19915;-88
2021/03/19 02:17:36;;;;;;;;;;;3.10;90.60;;;;;;6244420;22;20399;-86
2021/03/19 02:20:20;;;;;;;;;;;3.10;90.60;;;;;;6270557;22;19918;-87
2021/03/19 02:23:05;;;;;;;;;;;3.10;90.60;;;;;;6248483;22;19910;-87
2021/03/19 02:25:51;;;;;;;;;;;3.10;90.60;;;;;;6274577;22;19910;-87
2021/03/19 02:28:46;;;;;;;;;;;3.10;90.60;;;;;;6249760;22;19911;-87
2021/03/19 02:31:12;;;;;;;;;;;3.10;90.60;;;;;;6248891;22;19903;-86
2021/03/19 02:34:12;;;;;;;;;;;3.10;90.50;;;;;;6250051;22;19904;-87
2021/03/19 02:36:58;;;;;;;;;;;3.00;90.50;;;;;;6222702;22;19918;-88
2021/03/19 02:39:52;;;;;;;;;;;3.00;90.50;;;;;;6249875;22;19964;-86
2021/03/19 02:42:38;;;;;;;;;;;3.00;90.50;;;;;;6248065;22;19927;-86
2021/03/19 02:45:16;;;;;;;;;;;3.00;90.50;;;;;;6248966;22;19914;-87
2021/03/19 02:47:47;;;;;;;;;;;2.90;90.50;;;;;;6247171;22;20332;-86
2021/03/19 02:50:15;;;;;;;;;;;2.90;90.50;;;;;;6249011;22;19903;-86
2021/03/19 02:53:00;;;;;;;;;;;2.90;90.50;;;;;;6275192;22;19908;-86
2021/03/19 02:58:17;;;;;;;;;;;2.90;90.50;;;;;;6255239;22;19907;-87
2021/03/19 03:00:49;;;;;;;;;;;2.80;90.50;;;;;;6248332;22;19903;-87
2021/03/19 03:03:30;;;;;;;;;;;;;;;;;;;;;
2021/03/19 03:05:56;;;;;;;;;;;2.80;90.50;;;;;;6275266;22;19998;-88
2021/03/19 03:08:42;;;;;;;;;;;;;;;;;;;;;
2021/03/19 03:14:10;;;;;;;;;;;2.70;90.50;;;;;;6231576;22;19911;-88
2021/03/19 03:16:44;;;;;;;;;;;2.70;90.50;;;;;;6248173;22;20353;-88
2021/03/19 03:19:20;;;;;;;;;;;2.80;90.50;;;;;;6223932;22;19907;-88
2021/03/19 03:21:48;;;;;;;;;;;2.70;90.40;;;;;;6247975;22;20214;-87
2021/03/19 03:24:19;;;;;;;;;;;2.70;90.40;;;;;;6249215;22;20045;-87
2021/03/19 03:26:50;;;;;;;;;;;2.70;90.50;;;;;;6248447;22;19911;-86
2021/03/19 03:29:20;;;;;;;;;;;2.60;90.50;;;;;;6276644;22;19978;-86
2021/03/19 03:31:49;;;;;;;;;;;2.60;90.40;;;;;;6274552;22;19942;-86
2021/03/19 03:34:19;;;;;;;;;;;2.60;90.50;;;;;;6249446;22;19903;-86
2021/03/19 03:37:07;;;;;;;;;;;;;;;;;;;;;
2021/03/19 03:39:49;;;;;;;;;;;2.60;90.40;;;;;;6245824;23;20281;-87
2021/03/19 03:42:36;;;;;;;;;;;2.60;90.40;;;;;;6220233;23;19912;-86
2021/03/19 03:45:15;;;;;;;;;;;2.60;90.40;;;;;;6245636;22;20181;-86
2021/03/19 03:47:41;;;;;;;;;;;2.60;90.40;;;;;;6245380;22;19947;-87
2021/03/19 03:50:48;;;;;;;;;;;2.60;90.40;;;;;;6245631;23;19904;-88
2021/03/19 03:53:24;;;;;;;;;;;2.60;90.40;;;;;;6245966;22;19904;-87
2021/03/19 03:56:07;;;;;;;;;;;2.50;90.30;;;;;;6246195;22;19909;-86
2021/03/19 03:58:35;;;;;;;;;;;2.50;90.30;;;;;;6243178;23;19934;-87
2021/03/19 04:01:10;;;;;;;;;;;2.50;90.30;;;;;;6241657;23;20223;-88
2021/03/19 04:03:43;;;;;;;;;;;2.40;90.20;;;;;;6245165;23;20202;-86
2021/03/19 04:06:29;;;;;;;;;;;2.40;90.30;;;;;;6246464;22;19974;-86
2021/03/19 04:08:57;;;;;;;;;;;2.40;90.30;;;;;;6246125;22;20352;-86
2021/03/19 04:11:28;;;;;;;;;;;2.40;90.30;;;;;;6245740;23;19903;-86
2021/03/19 04:14:26;;;;;;;;;;;;;;;;;;;;;
2021/03/19 04:16:52;;;;;;;;;;;2.30;90.30;;;;;;6245492;23;19990;-86
2021/03/19 04:19:30;;;;;;;;;;;;;;;;;;;;;
2021/03/19 04:22:12;;;;;;;;;;;2.30;90.30;;;;;;6245250;23;19990;-88
2021/03/19 04:24:48;;;;;;;;;;;;;;;;;;;;;
2021/03/19 04:27:42;;;;;;;;;;;2.30;90.30;;;;;;6246074;23;19999;-87
2021/03/19 04:30:16;;;;;;;;;;;2.30;90.30;;;;;;6218232;23;19903;-86
2021/03/19 04:32:45;;;;;;;;;;;2.30;90.20;;;;;;6217763;23;19990;-88
2021/03/19 04:35:21;;;;;;;;;;;;;;;;;;;;;
2021/03/19 04:38:00;;;;;;;;;;;;;;;;;;;;;
2021/03/19 04:40:26;;;;;;;;;;;2.20;90.20;;;;;;6277756;22;20002;-87
2021/03/19 04:42:57;;;;;;;;;;;2.20;90.10;;;;;;6249734;22;19982;-86
2021/03/19 04:45:35;;;;;;;;;;;;;;;;;;;;;
2021/03/19 04:48:04;;;;;;;;;;;2.20;90.00;;;;;;6249557;22;19926;-87
2021/03/19 04:50:38;;;;;;;;;;;2.10;89.90;;;;;;6246049;22;19964;-85
2021/03/19 04:53:07;;;;;;;;;;;2.10;90.00;;;;;;6247413;22;20279;-87
2021/03/19 04:55:38;;;;;;;;;;;2.10;89.80;;;;;;6248717;22;19904;-86
2021/03/19 04:58:04;;;;;;;;;;;2.10;89.70;;;;;;6277312;22;19942;-87
2021/03/19 05:00:37;;;;;;;;;;;2.10;89.70;;;;;;6272909;22;19907;-87
2021/03/19 05:03:23;;;;;;;;;;;2.10;89.60;;;;;;6248446;22;20309;-87
2021/03/19 05:08:34;;;;;;;;;;;2.10;89.50;;;;;;6260492;22;19911;-87
2021/03/19 05:11:03;;;;;;;;;;;2.10;89.50;;;;;;6276365;22;19982;-87
2021/03/19 05:13:36;;;;;;;;;;;2.10;89.30;;;;;;6247706;22;19903;-88
2021/03/19 05:16:13;;;;;;;;;;;2.00;89.20;;;;;;6244802;22;19908;-88
2021/03/19 05:18:48;;;;;;;;;;;2.00;89.20;;;;;;6247547;22;20313;-88
2021/03/19 05:21:18;;;;;;;;;;;2.00;89.20;;;;;;6224442;22;19907;-87
2021/03/19 05:23:58;;;;;;;;;;;2.00;89.20;;;;;;6223946;22;19911;-86
2021/03/19 05:26:39;;;;;;;;;;;2.00;89.10;;;;;;6248670;22;19980;-87
2021/03/19 05:29:10;;;;;;;;;;;2.00;89.20;;;;;;6248936;22;19969;-87
2021/03/19 05:31:46;;;;;;;;;;;2.00;89.00;;;;;;6223912;22;19918;-86
2021/03/19 05:34:13;;;;;;;;;;;1.90;89.00;;;;;;6277409;22;19925;-87
2021/03/19 05:36:53;;;;;;;;;;;2.00;89.10;;;;;;6248886;22;19915;-87
2021/03/19 05:39:27;;;;;;;;;;;2.00;89.10;;;;;;6250209;22;20332;-87
2021/03/19 05:42:26;;;;;;;;;;;2.00;89.00;;;;;;6249224;22;20284;-88
2021/03/19 05:45:02;;;;;;;;;;;2.00;88.90;;;;;;6244804;22;19918;-87
2021/03/19 05:47:30;;;;;;;;;;;2.00;88.80;;;;;;6246101;22;19911;-86
2021/03/19 05:50:23;;;;;;;;;;;1.90;88.80;;;;;;6250673;22;20395;-92
2021/03/19 06:09:37;;;;;;;;;;;1.90;88.70;;;;;;5952745;24;20254;-91
2021/03/19 06:19:14;;;;;;;;;;;;;;;;;;;;;
2021/03/19 06:22:15;;;;;;;;;;;;;;;;;;;;;
2021/03/19 06:43:59;;;;;;;;;;;2.20;88.40;;;;;;5900008;24;19915;-90
2021/03/19 06:53:17;;;;;;;;;;;;;;;;;;;;;
2021/03/19 07:09:00;;;;;;;;;;;;;;;;;;;;;
2021/03/19 07:18:29;;;;;;;;;;;;;;;;;;;;;
2021/03/19 07:31:26;;;;;;;;;;;;;;;;;;;;;
2021/03/19 07:59:38;;;;;;;;;;;3.50;83.10;;;;;;5962691;23;19906;-89
2021/03/19 08:05:58;;;;;;;;;;;;;;;;;;;;;
2021/03/19 08:08:52;;;;;;;;;;;;;;;;;;;;;
2021/03/19 11:36:59;;;;;;;;;;;;;;;;;;;;;
2021/03/19 11:39:56;;;;;;;;;;;;;;;;;;;;;
2021/03/19 11:46:20;;;;;;;;;;;;;;;;;;;;;
2021/03/19 17:48:17;;;;;;;;;;;8.10;58.30;;;;;;6302700;22;19923;-87
2021/03/19 17:51:04;;;;;;;;;;;8.10;58.20;;;;;;6284152;22;19978;-92
2021/03/19 18:17:21;;;;;;;;;;;7.50;59.60;;;;;;6262969;22;19926;-86
2021/03/19 18:26:11;;;;;;;;;;;7.40;60.00;;;;;;6122721;23;19968;-86
2021/03/19 18:28:41;;;;;;;;;;;7.40;60.10;;;;;;6247465;22;19908;-86
2021/03/19 18:31:29;;;;;;;;;;;7.40;60.40;;;;;;6247914;22;19904;-89
2021/03/19 18:34:27;;;;;;;;;;;7.30;60.70;;;;;;6189103;22;19914;-88
2021/03/19 18:37:15;;;;;;;;;;;7.30;60.90;;;;;;6224200;22;19906;-87
2021/03/19 18:39:59;;;;;;;;;;;7.20;61.10;;;;;;6232107;22;19916;-87
2021/03/19 18:48:59;;;;;;;;;;;;;;;;;;;;;
2021/03/19 18:51:40;;;;;;;;;;;;;;;;;;;;;
2021/03/19 18:54:36;;;;;;;;;;;7.00;62.70;;;;;;6181685;23;19999;-88
2021/03/19 19:01:02;;;;;;;;;;;6.90;63.50;;;;;;6098505;23;19919;-88
2021/03/19 19:04:15;;;;;;;;;;;;;;;;;;;;;
2021/03/19 19:10:03;;;;;;;;;;;6.70;65.50;;;;;;6093268;23;19988;-87
2021/03/19 19:15:49;;;;;;;;;;;6.70;65.90;;;;;;6165347;23;20301;-86
2021/03/19 19:21:26;;;;;;;;;;;6.60;66.20;;;;;;6157871;23;19924;-86
2021/03/19 19:23:54;;;;;;;;;;;6.50;66.30;;;;;;6235492;22;20182;-86
2021/03/19 19:26:32;;;;;;;;;;;;;;;;;;;;;
2021/03/19 19:29:24;;;;;;;;;;;6.50;66.60;;;;;;6250075;22;20002;-86
2021/03/19 19:31:59;;;;;;;;;;;6.40;66.80;;;;;;6233328;22;19903;-87
2021/03/19 19:34:29;;;;;;;;;;;6.40;67.10;;;;;;6249412;22;19903;-87
2021/03/19 19:37:23;;;;;;;;;;;;;;;;;;;;;
2021/03/19 19:40:26;;;;;;;;;;;6.30;67.60;;;;;;6250468;22;19990;-87
2021/03/19 19:48:49;;;;;;;;;;;6.10;68.60;;;;;;6236064;22;19911;-87
2021/03/19 19:54:55;;;;;;;;;;;6.00;69.70;;;;;;6253179;22;19907;-89
2021/03/19 19:57:53;;;;;;;;;;;;;;;;;;;;;
2021/03/19 20:00:48;;;;;;;;;;;6.00;70.60;;;;;;6274857;22;20018;-89
2021/03/19 20:06:58;;;;;;;;;;;5.90;71.50;;;;;;6250037;22;19903;-87
2021/03/19 20:10:00;;;;;;;;;;;5.90;71.70;;;;;;6248689;22;20207;-87
2021/03/19 20:19:59;;;;;;;;;;;;;;;;;;;;;
2021/03/19 20:28:38;;;;;;;;;;;5.70;74.00;;;;;;6258180;22;19946;-87
2021/03/19 20:34:25;;;;;;;;;;;5.60;74.60;;;;;;6218936;22;19907;-87
2021/03/19 20:37:05;;;;;;;;;;;;;;;;;;;;;
2021/03/19 20:39:33;;;;;;;;;;;5.50;75.20;;;;;;6277097;22;20283;-87
2021/03/19 20:42:12;;;;;;;;;;;5.50;75.20;;;;;;6250214;22;19908;-86
2021/03/19 20:44:54;;;;;;;;;;;5.50;75.60;;;;;;6249466;22;19910;-87
2021/03/19 20:54:04;;;;;;;;;;;;;;;;;;;;;
2021/03/19 20:56:45;;;;;;;;;;;;;;;;;;;;;
2021/03/19 21:00:30;;;;;;;;;;;;;;;;;;;;;
2021/03/19 21:03:07;;;;;;;;;;;;;;;;;;;;;
2021/03/19 21:08:34;;;;;;;;;;;5.20;77.80;;;;;;6132965;23;19913;-87
2021/03/19 21:11:13;;;;;;;;;;;5.20;77.70;;;;;;6152927;23;19932;-88
2021/03/19 21:13:39;;;;;;;;;;;5.20;77.70;;;;;;6127770;23;19940;-86
2021/03/19 21:16:11;;;;;;;;;;;5.20;78.10;;;;;;6127609;23;19905;-85
2021/03/19 21:22:15;;;;;;;;;;;5.00;78.40;;;;;;6122482;23;19921;-87
2021/03/19 21:25:09;;;;;;;;;;;5.00;78.90;;;;;;6098894;23;19905;-90
2021/03/19 21:27:45;;;;;;;;;;;5.00;78.90;;;;;;6183328;23;20432;-87
2021/03/19 21:30:31;;;;;;;;;;;5.00;78.90;;;;;;6157895;23;19920;-87
2021/03/19 21:33:31;;;;;;;;;;;4.90;79.10;;;;;;6220811;22;19953;-88
2021/03/19 21:36:14;;;;;;;;;;;4.90;79.20;;;;;;6228113;22;20046;-90
2021/03/19 21:39:25;;;;;;;;;;;;;;;;;;;;;
2021/03/19 21:42:20;;;;;;;;;;;4.80;79.50;;;;;;6244572;22;19987;-89
2021/03/19 21:47:48;;;;;;;;;;;4.70;80.20;;;;;;6256561;22;19904;-90
2021/03/19 21:50:34;;;;;;;;;;;;;;;;;;;;;
2021/03/19 21:53:42;;;;;;;;;;;;;;;;;;;;;
2021/03/19 21:59:53;;;;;;;;;;;4.50;81.30;;;;;;6256623;22;19930;-88
2021/03/19 22:02:47;;;;;;;;;;;;;;;;;;;;;
2021/03/19 22:05:54;;;;;;;;;;;4.50;81.60;;;;;;6131086;23;19988;-89
2021/03/19 22:21:37;;;;;;;;;;;4.40;81.70;;;;;;6088485;23;19924;-88
2021/03/19 22:27:51;;;;;;;;;;;;;;;;;;;;;
2021/03/19 22:33:56;;;;;;;;;;;;;;;;;;;;;
2021/03/19 22:36:33;;;;;;;;;;;4.30;82.70;;;;;;6093216;23;20000;-89
2021/03/19 22:42:12;;;;;;;;;;;4.20;82.90;;;;;;6254429;22;19911;-88
2021/03/19 22:48:01;;;;;;;;;;;4.30;82.20;;;;;;6262256;22;20273;-88
2021/03/19 22:50:32;;;;;;;;;;;4.20;82.20;;;;;;6225120;22;19915;-89
2021/03/19 22:53:20;;;;;;;;;;;4.20;82.30;;;;;;6222239;22;19914;-89
2021/03/19 22:56:07;;;;;;;;;;;;;;;;;;;;;
2021/03/19 22:59:12;;;;;;;;;;;4.10;82.60;;;;;;6253286;22;19974;-89
2021/03/19 23:01:57;;;;;;;;;;;;;;;;;;;;;
2021/03/19 23:04:37;;;;;;;;;;;4.10;82.50;;;;;;6276056;22;19986;-88
2021/03/19 23:07:31;;;;;;;;;;;4.10;82.50;;;;;;6224368;22;19943;-89
2021/03/19 23:10:24;;;;;;;;;;;;;;;;;;;;;
2021/03/19 23:16:24;;;;;;;;;;;4.00;82.80;;;;;;6256987;22;19942;-88
2021/03/19 23:22:30;;;;;;;;;;;;;;;;;;;;;
2021/03/19 23:28:44;;;;;;;;;;;;;;;;;;;;;
2021/03/19 23:31:39;;;;;;;;;;;;;;;;;;;;;
2021/03/19 23:34:37;;;;;;;;;;;;;;;;;;;;;
2021/03/19 23:37:26;;;;;;;;;;;3.90;83.10;;;;;;6276771;22;19990;-89
2021/03/19 23:44:12;;;;;;;;;;;;;;;;;;;;;
2021/03/19 23:46:49;;;;;;;;;;;;;;;;;;;;;
2021/03/19 23:55:00;;;;;;;;;;;3.80;83.30;;;;;;6132415;23;19916;-89
2021/03/19 23:57:47;;;;;;;;;;;3.80;83.30;;;;;;6105062;23;19909;-89
